Cumberland College, KY

10:15 PM EDT on September 22, 2014 (GMT -0400)
Mackey Bend | Change Station
CLOSE
Current Station
Personal Weather Stations
Location: Barbourville, KY
Elevation: 1020 ft
Nearby Weather Stations

Elev 1020 ft 36.81 °N, 83.96 °W | Updated 13 seconds ago

Klart
Klart
49.8 °F
Feels Like 50 °F
N
0.0
Vind Växlande Vind from O/SO
Gusts 0.0 miles/tim

Idag
High -- | Low -- °F
--% Chance of Precip.
Yesterday
High -- | Low -- °F
Precip. -- tum
7:24 AM 7:33 PM
Fjärde kvarteret, 1% visible
Lufttryck 30.24 tum
Sikt 10.0 miles
Molnigt Klart
Vindavkylning 50 °F
Daggpunkt 50 °F
Luftfuktighet 99%
Rainfall 0.00 tum
Snow Depth Not available.
UV 0 out of 12
Pollen 5.80 out of 12
Air Quality Not available.
Flu Activity Not available.
METAR KLOZ 230153Z AUTO 36003KT 10SM CLR 13/08 A3025 RMK AO2 SLP239 T01280083

More Conditions Fewer Conditions

Lufttryck 30.24 tum
Sikt 10.0 miles
Molnigt Klart
Vindavkylning 50 °F
Daggpunkt 50 °F
Luftfuktighet 99%
Rainfall 0.00 tum
Snow Depth Not available.
UV 0 out of 12
Pollen 5.80 out of 12
Air Quality Not available.
Flu Activity Not available.
METAR KLOZ 230153Z AUTO 36003KT 10SM CLR 13/08 A3025 RMK AO2 SLP239 T01280083

More Conditions Fewer Conditions

10-Day Weather Forecast

Almanac

Astronomi

Sep. 22, 2014 Rise Set
Actual Time 7:24 AM EDT 7:33 PM EDT
Civil Twilight 6:58 AM EDT 7:59 PM EDT
Nautical Twilight 6:28 AM EDT 8:29 PM EDT
Astronomical Twilight 5:57 AM EDT 9:00 PM EDT
Månen 5:54 AM EDT (9/22) 6:39 PM EDT (9/22)
Length Of Visible Light 13h 00m
Dagens längd
12h 09m
Tomorrow will be 2m 20s shorter.
Fjärde kvarteret, 1% of the Moon is Illuminated
Idag
Fjärde kvarteret
Sep 24
New
Oct 1
Första kvarteret
Oct 8
Fullmåne
Oct 15
Sista kvarteret

Today's Extremes

State Highs State Lows

Community

WunderPhotos

Upload Photos

1,755,587 photos uploaded!

Nearby

Snödjup

Station Depth Elevation
No new snow has been reported.

Earthquake Activity

Stad Distance Mag. Time & Date
Sweetwater, Tennessee 77 miles 2.5 3:54 PM EDT
2014-09-20
Minimum magnitude displayed is 2.5.

Coastal Water Temperatures

Plats Temperatur
No Stations Reporting

Nearby Weather Stations